Redwater, Texas
Current Conditions -  °F | °C
As of 11:19 PM on Wednesday 17 Dec 2014 (Local Time) from KTXK Reporting Station
Light Rain Light Rain  
Wind Chill: 32°   Ceiling: 600
Heat Index: 37°   Visibility: 3mi
Dew Point: 37°   Wind: 7mph
Humidity: 100%   Direction: 60°ENE
Pressure: 30.23"   Gusts: NA
Location:  33.36°N, 94.25°W
Report Text: KTXK 180519Z AUTO 06006KT 3SM -RA BR BKN006 BKN022 OVC037 03/03 A3023 RMK AO2 P0001 T00280028
Loading
Personal Weather Stations






























Interactive Weather Map New forecast layout! Learn more

10-Day Weather Forecast

Advertisements
Track Severe Weather on mobile